sensor_id;sensor_type;location;lat;lon;timestamp;P1;durP1;ratioP1;P2;durP2;ratioP2
51298;SDS011;37382;45.192;9.790;2024-02-16T00:01:04;52.25;;;36.67;;
51298;SDS011;37382;45.192;9.790;2024-02-16T00:03:32;48.42;;;36.58;;
51298;SDS011;37382;45.192;9.790;2024-02-16T00:05:59;50.63;;;34.00;;
51298;SDS011;37382;45.192;9.790;2024-02-16T00:08:27;50.55;;;35.38;;
51298;SDS011;37382;45.192;9.790;2024-02-16T00:10:54;48.30;;;34.95;;
51298;SDS011;37382;45.192;9.790;2024-02-16T00:13:22;50.25;;;35.78;;
51298;SDS011;37382;45.192;9.790;2024-02-16T00:15:50;55.53;;;37.75;;
51298;SDS011;37382;45.192;9.790;2024-02-16T00:18:17;51.38;;;37.60;;
51298;SDS011;37382;45.192;9.790;2024-02-16T00:20:45;65.45;;;43.40;;
51298;SDS011;37382;45.192;9.790;2024-02-16T00:23:13;56.17;;;39.45;;
51298;SDS011;37382;45.192;9.790;2024-02-16T00:25:40;53.15;;;37.95;;
51298;SDS011;37382;45.192;9.790;2024-02-16T00:28:08;54.65;;;38.17;;
51298;SDS011;37382;45.192;9.790;2024-02-16T00:30:36;59.38;;;39.20;;
51298;SDS011;37382;45.192;9.790;2024-02-16T00:33:03;55.08;;;40.47;;
51298;SDS011;37382;45.192;9.790;2024-02-16T00:35:31;65.75;;;41.17;;
51298;SDS011;37382;45.192;9.790;2024-02-16T00:38:00;67.57;;;42.05;;
51298;SDS011;37382;45.192;9.790;2024-02-16T00:40:27;65.95;;;43.72;;
51298;SDS011;37382;45.192;9.790;2024-02-16T00:42:55;64.50;;;44.17;;
51298;SDS011;37382;45.192;9.790;2024-02-16T00:45:23;62.88;;;45.22;;
51298;SDS011;37382;45.192;9.790;2024-02-16T00:47:50;71.13;;;49.83;;
51298;SDS011;37382;45.192;9.790;2024-02-16T00:50:18;61.20;;;40.90;;
51298;SDS011;37382;45.192;9.790;2024-02-16T00:52:46;58.80;;;39.60;;
51298;SDS011;37382;45.192;9.790;2024-02-16T00:55:14;52.53;;;35.58;;
51298;SDS011;37382;45.192;9.790;2024-02-16T00:57:42;53.08;;;36.08;;
51298;SDS011;37382;45.192;9.790;2024-02-16T01:00:09;54.72;;;37.03;;
51298;SDS011;37382;45.192;9.790;2024-02-16T01:02:37;51.58;;;38.85;;
51298;SDS011;37382;45.192;9.790;2024-02-16T01:05:05;54.50;;;40.30;;
51298;SDS011;37382;45.192;9.790;2024-02-16T01:07:32;47.38;;;36.40;;
51298;SDS011;37382;45.192;9.790;2024-02-16T01:10:00;48.75;;;35.65;;
51298;SDS011;37382;45.192;9.790;2024-02-16T01:12:30;49.53;;;37.00;;
51298;SDS011;37382;45.192;9.790;2024-02-16T01:15:00;52.30;;;36.22;;
51298;SDS011;37382;45.192;9.790;2024-02-16T01:17:28;52.88;;;37.53;;
51298;SDS011;37382;45.192;9.790;2024-02-16T01:19:56;50.28;;;36.58;;
51298;SDS011;37382;45.192;9.790;2024-02-16T01:22:24;51.03;;;36.85;;
51298;SDS011;37382;45.192;9.790;2024-02-16T01:24:52;52.08;;;37.58;;
51298;SDS011;37382;45.192;9.790;2024-02-16T01:27:19;57.53;;;40.72;;
51298;SDS011;37382;45.192;9.790;2024-02-16T01:29:48;66.47;;;45.72;;
51298;SDS011;37382;45.192;9.790;2024-02-16T01:32:15;73.72;;;51.08;;
51298;SDS011;37382;45.192;9.790;2024-02-16T01:34:43;65.70;;;45.10;;
51298;SDS011;37382;45.192;9.790;2024-02-16T01:37:13;64.10;;;42.70;;
51298;SDS011;37382;45.192;9.790;2024-02-16T01:39:41;80.05;;;54.50;;
51298;SDS011;37382;45.192;9.790;2024-02-16T01:42:09;73.78;;;48.95;;
51298;SDS011;37382;45.192;9.790;2024-02-16T01:44:36;74.30;;;46.78;;
51298;SDS011;37382;45.192;9.790;2024-02-16T01:47:05;63.63;;;42.70;;
51298;SDS011;37382;45.192;9.790;2024-02-16T01:49:33;64.78;;;44.28;;
51298;SDS011;37382;45.192;9.790;2024-02-16T01:52:01;68.75;;;46.50;;
51298;SDS011;37382;45.192;9.790;2024-02-16T01:54:30;75.53;;;50.72;;
51298;SDS011;37382;45.192;9.790;2024-02-16T01:56:57;72.13;;;47.78;;
51298;SDS011;37382;45.192;9.790;2024-02-16T01:59:26;68.75;;;49.00;;
51298;SDS011;37382;45.192;9.790;2024-02-16T02:01:53;73.35;;;50.03;;
51298;SDS011;37382;45.192;9.790;2024-02-16T02:04:21;66.03;;;45.00;;
51298;SDS011;37382;45.192;9.790;2024-02-16T02:06:48;53.25;;;40.10;;
51298;SDS011;37382;45.192;9.790;2024-02-16T02:09:16;59.08;;;40.53;;
51298;SDS011;37382;45.192;9.790;2024-02-16T02:11:43;58.83;;;42.00;;
51298;SDS011;37382;45.192;9.790;2024-02-16T02:14:11;62.50;;;45.85;;
51298;SDS011;37382;45.192;9.790;2024-02-16T02:16:38;62.63;;;43.70;;
51298;SDS011;37382;45.192;9.790;2024-02-16T02:19:21;66.00;;;44.30;;
51298;SDS011;37382;45.192;9.790;2024-02-16T02:21:48;61.30;;;44.10;;
51298;SDS011;37382;45.192;9.790;2024-02-16T02:24:17;60.58;;;42.40;;
51298;SDS011;37382;45.192;9.790;2024-02-16T02:26:45;64.88;;;45.05;;
51298;SDS011;37382;45.192;9.790;2024-02-16T02:29:12;61.70;;;44.63;;
51298;SDS011;37382;45.192;9.790;2024-02-16T02:31:40;65.07;;;43.10;;
51298;SDS011;37382;45.192;9.790;2024-02-16T02:34:07;72.30;;;47.25;;
51298;SDS011;37382;45.192;9.790;2024-02-16T02:36:35;67.50;;;44.25;;
51298;SDS011;37382;45.192;9.790;2024-02-16T02:39:03;73.85;;;49.28;;
51298;SDS011;37382;45.192;9.790;2024-02-16T02:41:30;66.97;;;45.20;;
51298;SDS011;37382;45.192;9.790;2024-02-16T02:43:59;65.80;;;46.53;;
51298;SDS011;37382;45.192;9.790;2024-02-16T02:46:26;67.30;;;48.60;;
51298;SDS011;37382;45.192;9.790;2024-02-16T02:48:55;71.57;;;46.58;;
51298;SDS011;37382;45.192;9.790;2024-02-16T02:51:22;71.90;;;48.40;;
51298;SDS011;37382;45.192;9.790;2024-02-16T02:53:50;78.50;;;52.65;;
51298;SDS011;37382;45.192;9.790;2024-02-16T02:56:18;85.30;;;57.35;;
51298;SDS011;37382;45.192;9.790;2024-02-16T02:58:45;86.55;;;54.83;;
51298;SDS011;37382;45.192;9.790;2024-02-16T03:01:13;89.75;;;56.25;;
51298;SDS011;37382;45.192;9.790;2024-02-16T03:03:43;88.20;;;58.20;;
51298;SDS011;37382;45.192;9.790;2024-02-16T03:06:10;87.25;;;55.88;;
51298;SDS011;37382;45.192;9.790;2024-02-16T03:08:38;142.20;;;83.68;;
51298;SDS011;37382;45.192;9.790;2024-02-16T03:11:05;131.80;;;92.53;;
51298;SDS011;37382;45.192;9.790;2024-02-16T03:13:33;87.05;;;56.50;;
51298;SDS011;37382;45.192;9.790;2024-02-16T03:16:00;89.20;;;56.78;;
51298;SDS011;37382;45.192;9.790;2024-02-16T03:18:31;84.25;;;52.75;;
51298;SDS011;37382;45.192;9.790;2024-02-16T03:20:59;71.68;;;49.85;;
51298;SDS011;37382;45.192;9.790;2024-02-16T03:23:26;90.18;;;54.08;;
51298;SDS011;37382;45.192;9.790;2024-02-16T03:25:53;81.60;;;54.80;;
51298;SDS011;37382;45.192;9.790;2024-02-16T03:28:21;76.78;;;52.30;;
51298;SDS011;37382;45.192;9.790;2024-02-16T03:30:49;73.38;;;50.97;;
51298;SDS011;37382;45.192;9.790;2024-02-16T03:33:16;74.85;;;50.75;;
51298;SDS011;37382;45.192;9.790;2024-02-16T03:35:43;70.45;;;50.95;;
51298;SDS011;37382;45.192;9.790;2024-02-16T03:38:11;74.90;;;49.67;;
51298;SDS011;37382;45.192;9.790;2024-02-16T03:40:40;71.82;;;47.42;;
51298;SDS011;37382;45.192;9.790;2024-02-16T03:43:08;74.85;;;47.50;;
51298;SDS011;37382;45.192;9.790;2024-02-16T03:45:35;62.22;;;45.65;;
51298;SDS011;37382;45.192;9.790;2024-02-16T03:48:03;72.82;;;48.20;;
51298;SDS011;37382;45.192;9.790;2024-02-16T03:50:30;59.15;;;43.95;;
51298;SDS011;37382;45.192;9.790;2024-02-16T03:52:58;63.00;;;44.60;;
51298;SDS011;37382;45.192;9.790;2024-02-16T03:55:26;60.53;;;42.45;;
51298;SDS011;37382;45.192;9.790;2024-02-16T03:57:54;58.33;;;41.30;;
51298;SDS011;37382;45.192;9.790;2024-02-16T04:00:21;58.92;;;42.28;;
51298;SDS011;37382;45.192;9.790;2024-02-16T04:02:48;65.00;;;44.88;;
51298;SDS011;37382;45.192;9.790;2024-02-16T04:05:16;61.92;;;43.28;;
51298;SDS011;37382;45.192;9.790;2024-02-16T04:07:43;62.58;;;45.10;;
51298;SDS011;37382;45.192;9.790;2024-02-16T04:10:12;63.00;;;44.22;;
51298;SDS011;37382;45.192;9.790;2024-02-16T04:12:39;63.13;;;43.78;;
51298;SDS011;37382;45.192;9.790;2024-02-16T04:15:07;59.13;;;41.67;;
51298;SDS011;37382;45.192;9.790;2024-02-16T04:17:35;61.15;;;43.17;;
51298;SDS011;37382;45.192;9.790;2024-02-16T04:20:03;63.35;;;42.83;;
51298;SDS011;37382;45.192;9.790;2024-02-16T04:22:31;64.50;;;43.80;;
51298;SDS011;37382;45.192;9.790;2024-02-16T04:25:04;65.90;;;45.05;;
51298;SDS011;37382;45.192;9.790;2024-02-16T04:27:32;63.88;;;44.13;;
51298;SDS011;37382;45.192;9.790;2024-02-16T04:29:59;67.60;;;46.03;;
51298;SDS011;37382;45.192;9.790;2024-02-16T04:32:26;65.40;;;44.70;;
51298;SDS011;37382;45.192;9.790;2024-02-16T04:34:54;64.40;;;43.42;;
51298;SDS011;37382;45.192;9.790;2024-02-16T04:37:24;71.45;;;46.50;;
51298;SDS011;37382;45.192;9.790;2024-02-16T04:39:52;74.35;;;46.40;;
51298;SDS011;37382;45.192;9.790;2024-02-16T04:42:20;71.07;;;47.40;;
51298;SDS011;37382;45.192;9.790;2024-02-16T04:44:47;65.60;;;45.05;;
51298;SDS011;37382;45.192;9.790;2024-02-16T04:47:16;63.40;;;44.58;;
51298;SDS011;37382;45.192;9.790;2024-02-16T04:49:44;63.70;;;44.10;;
51298;SDS011;37382;45.192;9.790;2024-02-16T04:52:11;66.85;;;45.90;;
51298;SDS011;37382;45.192;9.790;2024-02-16T04:54:38;61.90;;;43.05;;
51298;SDS011;37382;45.192;9.790;2024-02-16T04:57:08;57.78;;;41.42;;
51298;SDS011;37382;45.192;9.790;2024-02-16T04:59:35;58.60;;;41.92;;
51298;SDS011;37382;45.192;9.790;2024-02-16T05:02:02;61.75;;;43.72;;
51298;SDS011;37382;45.192;9.790;2024-02-16T05:04:31;67.43;;;47.25;;
51298;SDS011;37382;45.192;9.790;2024-02-16T05:06:58;56.13;;;37.88;;
51298;SDS011;37382;45.192;9.790;2024-02-16T05:09:26;53.53;;;38.85;;
51298;SDS011;37382;45.192;9.790;2024-02-16T05:11:54;55.28;;;39.58;;
51298;SDS011;37382;45.192;9.790;2024-02-16T05:14:21;58.90;;;41.10;;
51298;SDS011;37382;45.192;9.790;2024-02-16T05:16:49;54.67;;;39.97;;
51298;SDS011;37382;45.192;9.790;2024-02-16T05:19:19;56.75;;;41.13;;
51298;SDS011;37382;45.192;9.790;2024-02-16T05:21:47;58.67;;;42.35;;
51298;SDS011;37382;45.192;9.790;2024-02-16T05:24:15;61.30;;;42.15;;
51298;SDS011;37382;45.192;9.790;2024-02-16T05:26:43;64.00;;;42.38;;
51298;SDS011;37382;45.192;9.790;2024-02-16T05:29:10;58.25;;;40.95;;
51298;SDS011;37382;45.192;9.790;2024-02-16T05:31:37;70.45;;;44.33;;
51298;SDS011;37382;45.192;9.790;2024-02-16T05:34:04;64.45;;;45.35;;
51298;SDS011;37382;45.192;9.790;2024-02-16T05:36:32;61.60;;;42.95;;
51298;SDS011;37382;45.192;9.790;2024-02-16T05:39:03;65.63;;;44.88;;
51298;SDS011;37382;45.192;9.790;2024-02-16T05:41:47;67.55;;;48.22;;
51298;SDS011;37382;45.192;9.790;2024-02-16T05:44:14;67.85;;;45.97;;
51298;SDS011;37382;45.192;9.790;2024-02-16T05:46:43;75.22;;;49.55;;
51298;SDS011;37382;45.192;9.790;2024-02-16T05:49:11;71.95;;;49.30;;
51298;SDS011;37382;45.192;9.790;2024-02-16T05:51:39;72.63;;;49.08;;
51298;SDS011;37382;45.192;9.790;2024-02-16T05:54:08;69.65;;;47.78;;
51298;SDS011;37382;45.192;9.790;2024-02-16T05:56:35;62.85;;;45.75;;
51298;SDS011;37382;45.192;9.790;2024-02-16T05:59:04;71.60;;;49.83;;
51298;SDS011;37382;45.192;9.790;2024-02-16T06:01:32;73.20;;;49.63;;
51298;SDS011;37382;45.192;9.790;2024-02-16T06:04:00;50.85;;;38.83;;
51298;SDS011;37382;45.192;9.790;2024-02-16T06:06:27;45.92;;;35.63;;
51298;SDS011;37382;45.192;9.790;2024-02-16T06:08:55;47.13;;;34.53;;
51298;SDS011;37382;45.192;9.790;2024-02-16T06:11:22;49.10;;;37.08;;
51298;SDS011;37382;45.192;9.790;2024-02-16T06:13:49;55.15;;;37.97;;
51298;SDS011;37382;45.192;9.790;2024-02-16T06:16:17;65.85;;;41.15;;
51298;SDS011;37382;45.192;9.790;2024-02-16T06:18:44;60.45;;;40.88;;
51298;SDS011;37382;45.192;9.790;2024-02-16T06:21:11;68.20;;;41.33;;
51298;SDS011;37382;45.192;9.790;2024-02-16T06:23:40;76.07;;;41.45;;
51298;SDS011;37382;45.192;9.790;2024-02-16T06:26:07;132.20;;;48.05;;
51298;SDS011;37382;45.192;9.790;2024-02-16T06:28:35;112.22;;;47.13;;
51298;SDS011;37382;45.192;9.790;2024-02-16T06:31:03;115.50;;;48.08;;
51298;SDS011;37382;45.192;9.790;2024-02-16T06:33:31;118.78;;;47.13;;
51298;SDS011;37382;45.192;9.790;2024-02-16T06:35:59;116.75;;;47.55;;
51298;SDS011;37382;45.192;9.790;2024-02-16T06:38:26;128.52;;;48.65;;
51298;SDS011;37382;45.192;9.790;2024-02-16T06:40:54;134.73;;;49.78;;
51298;SDS011;37382;45.192;9.790;2024-02-16T06:43:21;116.13;;;49.92;;
51298;SDS011;37382;45.192;9.790;2024-02-16T06:45:48;133.43;;;49.10;;
51298;SDS011;37382;45.192;9.790;2024-02-16T06:48:16;85.68;;;45.50;;
51298;SDS011;37382;45.192;9.790;2024-02-16T06:50:43;61.80;;;44.00;;
51298;SDS011;37382;45.192;9.790;2024-02-16T06:53:11;74.57;;;42.22;;
51298;SDS011;37382;45.192;9.790;2024-02-16T06:55:38;53.88;;;42.13;;
51298;SDS011;37382;45.192;9.790;2024-02-16T06:58:05;59.63;;;44.00;;
51298;SDS011;37382;45.192;9.790;2024-02-16T07:00:32;53.50;;;42.95;;
51298;SDS011;37382;45.192;9.790;2024-02-16T07:03:00;53.28;;;42.92;;
51298;SDS011;37382;45.192;9.790;2024-02-16T07:05:28;56.53;;;44.80;;
51298;SDS011;37382;45.192;9.790;2024-02-16T07:08:01;57.30;;;45.75;;
51298;SDS011;37382;45.192;9.790;2024-02-16T07:10:29;62.28;;;46.28;;
51298;SDS011;37382;45.192;9.790;2024-02-16T07:12:56;58.67;;;43.75;;
51298;SDS011;37382;45.192;9.790;2024-02-16T07:15:23;61.60;;;44.55;;
51298;SDS011;37382;45.192;9.790;2024-02-16T07:17:53;64.10;;;44.95;;
51298;SDS011;37382;45.192;9.790;2024-02-16T07:20:21;68.20;;;45.72;;
51298;SDS011;37382;45.192;9.790;2024-02-16T07:22:48;64.97;;;44.92;;
51298;SDS011;37382;45.192;9.790;2024-02-16T07:25:18;77.05;;;46.83;;
51298;SDS011;37382;45.192;9.790;2024-02-16T07:27:46;68.18;;;47.72;;
51298;SDS011;37382;45.192;9.790;2024-02-16T07:30:13;74.25;;;49.72;;
51298;SDS011;37382;45.192;9.790;2024-02-16T07:32:49;63.50;;;49.13;;
51298;SDS011;37382;45.192;9.790;2024-02-16T07:35:20;66.65;;;45.50;;
51298;SDS011;37382;45.192;9.790;2024-02-16T07:37:51;70.63;;;47.88;;
51298;SDS011;37382;45.192;9.790;2024-02-16T07:40:21;65.47;;;46.05;;
51298;SDS011;37382;45.192;9.790;2024-02-16T07:42:49;68.00;;;46.13;;
51298;SDS011;37382;45.192;9.790;2024-02-16T07:45:16;76.07;;;48.20;;
51298;SDS011;37382;45.192;9.790;2024-02-16T07:47:44;80.35;;;50.55;;
51298;SDS011;37382;45.192;9.790;2024-02-16T07:50:13;83.05;;;49.33;;
51298;SDS011;37382;45.192;9.790;2024-02-16T07:52:41;80.95;;;50.70;;
51298;SDS011;37382;45.192;9.790;2024-02-16T07:55:09;68.97;;;48.00;;
51298;SDS011;37382;45.192;9.790;2024-02-16T07:57:37;69.43;;;51.72;;
51298;SDS011;37382;45.192;9.790;2024-02-16T08:00:05;67.70;;;49.80;;
51298;SDS011;37382;45.192;9.790;2024-02-16T08:02:34;85.85;;;58.00;;
51298;SDS011;37382;45.192;9.790;2024-02-16T08:05:02;78.05;;;55.60;;
51298;SDS011;37382;45.192;9.790;2024-02-16T08:07:29;72.85;;;56.20;;
51298;SDS011;37382;45.192;9.790;2024-02-16T08:09:59;80.50;;;55.00;;
51298;SDS011;37382;45.192;9.790;2024-02-16T08:12:27;75.90;;;55.90;;
51298;SDS011;37382;45.192;9.790;2024-02-16T08:14:56;79.65;;;58.50;;
51298;SDS011;37382;45.192;9.790;2024-02-16T08:17:26;78.72;;;56.35;;
51298;SDS011;37382;45.192;9.790;2024-02-16T08:19:54;83.82;;;59.67;;
51298;SDS011;37382;45.192;9.790;2024-02-16T08:22:22;86.85;;;60.78;;
51298;SDS011;37382;45.192;9.790;2024-02-16T08:24:50;89.53;;;59.65;;
51298;SDS011;37382;45.192;9.790;2024-02-16T08:27:17;100.85;;;61.88;;
51298;SDS011;37382;45.192;9.790;2024-02-16T08:29:44;95.50;;;61.85;;
51298;SDS011;37382;45.192;9.790;2024-02-16T08:32:12;84.82;;;62.92;;
51298;SDS011;37382;45.192;9.790;2024-02-16T08:34:39;99.30;;;61.67;;
51298;SDS011;37382;45.192;9.790;2024-02-16T08:37:08;98.00;;;63.60;;
51298;SDS011;37382;45.192;9.790;2024-02-16T08:39:37;93.95;;;66.78;;
51298;SDS011;37382;45.192;9.790;2024-02-16T08:42:05;90.97;;;63.83;;
51298;SDS011;37382;45.192;9.790;2024-02-16T08:44:33;85.00;;;66.57;;
51298;SDS011;37382;45.192;9.790;2024-02-16T08:47:01;95.10;;;65.75;;
51298;SDS011;37382;45.192;9.790;2024-02-16T08:49:28;103.30;;;66.00;;
51298;SDS011;37382;45.192;9.790;2024-02-16T08:51:56;90.35;;;66.15;;
51298;SDS011;37382;45.192;9.790;2024-02-16T08:54:23;89.90;;;65.03;;
51298;SDS011;37382;45.192;9.790;2024-02-16T08:56:53;103.38;;;65.60;;
51298;SDS011;37382;45.192;9.790;2024-02-16T08:59:21;88.28;;;64.70;;
51298;SDS011;37382;45.192;9.790;2024-02-16T09:01:48;97.32;;;66.95;;
51298;SDS011;37382;45.192;9.790;2024-02-16T09:04:15;90.43;;;66.38;;
51298;SDS011;37382;45.192;9.790;2024-02-16T09:06:43;98.72;;;68.20;;
51298;SDS011;37382;45.192;9.790;2024-02-16T09:09:11;92.10;;;65.00;;
51298;SDS011;37382;45.192;9.790;2024-02-16T09:11:39;100.18;;;67.68;;
51298;SDS011;37382;45.192;9.790;2024-02-16T09:14:06;103.03;;;67.72;;
51298;SDS011;37382;45.192;9.790;2024-02-16T09:16:33;101.15;;;69.38;;
51298;SDS011;37382;45.192;9.790;2024-02-16T09:19:01;94.20;;;67.60;;
51298;SDS011;37382;45.192;9.790;2024-02-16T09:21:29;98.47;;;69.63;;
51298;SDS011;37382;45.192;9.790;2024-02-16T09:23:57;97.15;;;69.20;;
51298;SDS011;37382;45.192;9.790;2024-02-16T09:29:01;107.03;;;69.05;;
51298;SDS011;37382;45.192;9.790;2024-02-16T09:31:28;98.13;;;69.00;;
51298;SDS011;37382;45.192;9.790;2024-02-16T09:33:55;104.05;;;71.93;;
51298;SDS011;37382;45.192;9.790;2024-02-16T09:36:24;95.18;;;68.15;;
51298;SDS011;37382;45.192;9.790;2024-02-16T09:38:51;104.00;;;71.85;;
51298;SDS011;37382;45.192;9.790;2024-02-16T09:41:20;94.93;;;69.07;;
51298;SDS011;37382;45.192;9.790;2024-02-16T09:43:50;102.17;;;70.10;;
51298;SDS011;37382;45.192;9.790;2024-02-16T09:46:21;98.72;;;71.82;;
51298;SDS011;37382;45.192;9.790;2024-02-16T09:48:50;106.07;;;73.20;;
51298;SDS011;37382;45.192;9.790;2024-02-16T09:51:20;107.65;;;73.45;;
51298;SDS011;37382;45.192;9.790;2024-02-16T09:53:54;99.07;;;73.03;;
51298;SDS011;37382;45.192;9.790;2024-02-16T09:56:26;102.95;;;72.60;;
51298;SDS011;37382;45.192;9.790;2024-02-16T09:58:53;109.63;;;73.53;;
51298;SDS011;37382;45.192;9.790;2024-02-16T10:01:22;105.82;;;74.22;;
51298;SDS011;37382;45.192;9.790;2024-02-16T10:03:51;105.03;;;76.18;;
51298;SDS011;37382;45.192;9.790;2024-02-16T10:06:18;107.30;;;77.95;;
51298;SDS011;37382;45.192;9.790;2024-02-16T10:08:50;118.88;;;79.55;;
51298;SDS011;37382;45.192;9.790;2024-02-16T10:11:24;108.65;;;78.38;;
51298;SDS011;37382;45.192;9.790;2024-02-16T10:13:55;117.60;;;78.88;;
51298;SDS011;37382;45.192;9.790;2024-02-16T10:16:26;114.00;;;81.47;;
51298;SDS011;37382;45.192;9.790;2024-02-16T10:19:07;112.57;;;81.97;;
51298;SDS011;37382;45.192;9.790;2024-02-16T10:21:35;126.00;;;81.60;;
51298;SDS011;37382;45.192;9.790;2024-02-16T10:24:06;115.63;;;82.28;;
51298;SDS011;37382;45.192;9.790;2024-02-16T10:26:36;122.60;;;84.93;;
51298;SDS011;37382;45.192;9.790;2024-02-16T10:29:10;123.20;;;84.43;;
51298;SDS011;37382;45.192;9.790;2024-02-16T10:31:41;122.22;;;83.20;;
51298;SDS011;37382;45.192;9.790;2024-02-16T10:34:09;116.63;;;82.03;;
51298;SDS011;37382;45.192;9.790;2024-02-16T10:36:38;111.78;;;81.43;;
51298;SDS011;37382;45.192;9.790;2024-02-16T10:39:06;120.00;;;83.57;;
51298;SDS011;37382;45.192;9.790;2024-02-16T10:41:40;118.00;;;85.50;;
51298;SDS011;37382;45.192;9.790;2024-02-16T10:44:08;119.35;;;83.28;;
51298;SDS011;37382;45.192;9.790;2024-02-16T10:46:37;121.30;;;83.88;;
51298;SDS011;37382;45.192;9.790;2024-02-16T10:49:05;126.40;;;80.25;;
51298;SDS011;37382;45.192;9.790;2024-02-16T10:51:37;117.60;;;82.47;;
51298;SDS011;37382;45.192;9.790;2024-02-16T10:54:09;117.65;;;84.70;;
51298;SDS011;37382;45.192;9.790;2024-02-16T10:56:40;113.35;;;79.60;;
51298;SDS011;37382;45.192;9.790;2024-02-16T10:59:08;118.15;;;81.65;;
51298;SDS011;37382;45.192;9.790;2024-02-16T11:01:43;112.65;;;80.15;;
51298;SDS011;37382;45.192;9.790;2024-02-16T11:04:12;119.35;;;83.38;;
51298;SDS011;37382;45.192;9.790;2024-02-16T11:06:53;119.18;;;82.38;;
51298;SDS011;37382;45.192;9.790;2024-02-16T11:09:34;119.78;;;82.47;;
51298;SDS011;37382;45.192;9.790;2024-02-16T11:12:03;113.72;;;79.90;;
51298;SDS011;37382;45.192;9.790;2024-02-16T11:14:41;114.03;;;82.22;;
51298;SDS011;37382;45.192;9.790;2024-02-16T11:17:10;123.82;;;86.05;;
51298;SDS011;37382;45.192;9.790;2024-02-16T11:19:44;114.40;;;83.53;;
51298;SDS011;37382;45.192;9.790;2024-02-16T11:22:16;113.47;;;79.82;;
51298;SDS011;37382;45.192;9.790;2024-02-16T11:24:46;111.10;;;79.25;;
51298;SDS011;37382;45.192;9.790;2024-02-16T11:27:17;115.03;;;81.65;;
51298;SDS011;37382;45.192;9.790;2024-02-16T11:29:49;114.78;;;80.43;;
51298;SDS011;37382;45.192;9.790;2024-02-16T11:32:18;110.28;;;76.97;;
51298;SDS011;37382;45.192;9.790;2024-02-16T11:34:47;112.68;;;79.82;;
51298;SDS011;37382;45.192;9.790;2024-02-16T11:37:15;112.63;;;79.85;;
51298;SDS011;37382;45.192;9.790;2024-02-16T11:39:43;113.05;;;80.05;;
51298;SDS011;37382;45.192;9.790;2024-02-16T11:42:14;119.35;;;84.45;;
51298;SDS011;37382;45.192;9.790;2024-02-16T11:44:50;114.43;;;79.63;;
51298;SDS011;37382;45.192;9.790;2024-02-16T11:47:20;107.32;;;75.28;;
51298;SDS011;37382;45.192;9.790;2024-02-16T11:50:02;113.38;;;78.90;;
51298;SDS011;37382;45.192;9.790;2024-02-16T11:52:40;107.13;;;76.35;;
51298;SDS011;37382;45.192;9.790;2024-02-16T11:55:08;113.43;;;78.63;;
51298;SDS011;37382;45.192;9.790;2024-02-16T11:57:37;113.85;;;79.90;;
51298;SDS011;37382;45.192;9.790;2024-02-16T12:00:05;106.43;;;77.35;;
51298;SDS011;37382;45.192;9.790;2024-02-16T12:02:38;114.30;;;79.15;;
51298;SDS011;37382;45.192;9.790;2024-02-16T12:05:06;110.30;;;79.60;;
51298;SDS011;37382;45.192;9.790;2024-02-16T12:07:37;108.63;;;76.90;;
51298;SDS011;37382;45.192;9.790;2024-02-16T12:10:08;102.80;;;76.32;;
51298;SDS011;37382;45.192;9.790;2024-02-16T12:12:36;107.25;;;78.53;;
51298;SDS011;37382;45.192;9.790;2024-02-16T12:15:04;116.80;;;78.22;;
51298;SDS011;37382;45.192;9.790;2024-02-16T12:17:33;120.45;;;82.22;;
51298;SDS011;37382;45.192;9.790;2024-02-16T12:20:01;116.68;;;80.90;;
51298;SDS011;37382;45.192;9.790;2024-02-16T12:22:30;116.28;;;81.10;;
51298;SDS011;37382;45.192;9.790;2024-02-16T12:24:57;118.00;;;82.30;;
51298;SDS011;37382;45.192;9.790;2024-02-16T12:27:29;114.82;;;82.35;;
51298;SDS011;37382;45.192;9.790;2024-02-16T12:29:57;116.90;;;80.88;;
51298;SDS011;37382;45.192;9.790;2024-02-16T12:32:24;114.25;;;82.50;;
51298;SDS011;37382;45.192;9.790;2024-02-16T12:34:52;112.63;;;81.60;;
51298;SDS011;37382;45.192;9.790;2024-02-16T12:37:20;117.78;;;81.45;;
51298;SDS011;37382;45.192;9.790;2024-02-16T12:39:49;109.15;;;78.00;;
51298;SDS011;37382;45.192;9.790;2024-02-16T12:42:16;114.70;;;81.43;;
51298;SDS011;37382;45.192;9.790;2024-02-16T12:44:44;109.40;;;79.68;;
51298;SDS011;37382;45.192;9.790;2024-02-16T12:47:11;109.68;;;79.70;;
51298;SDS011;37382;45.192;9.790;2024-02-16T12:49:39;112.63;;;76.85;;
51298;SDS011;37382;45.192;9.790;2024-02-16T12:52:06;108.45;;;80.22;;
51298;SDS011;37382;45.192;9.790;2024-02-16T12:54:33;110.95;;;78.80;;
51298;SDS011;37382;45.192;9.790;2024-02-16T12:57:01;108.72;;;77.95;;
51298;SDS011;37382;45.192;9.790;2024-02-16T12:59:29;112.18;;;79.43;;
51298;SDS011;37382;45.192;9.790;2024-02-16T13:01:56;115.57;;;76.82;;
51298;SDS011;37382;45.192;9.790;2024-02-16T13:04:24;112.22;;;80.43;;
51298;SDS011;37382;45.192;9.790;2024-02-16T13:06:51;112.07;;;80.40;;
51298;SDS011;37382;45.192;9.790;2024-02-16T13:09:20;110.85;;;80.45;;
51298;SDS011;37382;45.192;9.790;2024-02-16T13:11:47;111.00;;;79.97;;
51298;SDS011;37382;45.192;9.790;2024-02-16T13:14:21;116.72;;;81.13;;
51298;SDS011;37382;45.192;9.790;2024-02-16T13:16:49;114.97;;;79.55;;
51298;SDS011;37382;45.192;9.790;2024-02-16T13:19:17;106.25;;;78.47;;
51298;SDS011;37382;45.192;9.790;2024-02-16T13:21:46;108.38;;;78.63;;
51298;SDS011;37382;45.192;9.790;2024-02-16T13:24:14;109.18;;;78.63;;
51298;SDS011;37382;45.192;9.790;2024-02-16T13:26:41;106.53;;;75.82;;
51298;SDS011;37382;45.192;9.790;2024-02-16T13:29:09;108.45;;;75.72;;
51298;SDS011;37382;45.192;9.790;2024-02-16T13:31:36;108.45;;;77.55;;
51298;SDS011;37382;45.192;9.790;2024-02-16T13:34:04;103.25;;;74.72;;
51298;SDS011;37382;45.192;9.790;2024-02-16T13:36:31;115.03;;;79.90;;
51298;SDS011;37382;45.192;9.790;2024-02-16T13:39:02;95.72;;;70.05;;
51298;SDS011;37382;45.192;9.790;2024-02-16T13:41:29;103.18;;;72.72;;
51298;SDS011;37382;45.192;9.790;2024-02-16T13:43:56;106.53;;;72.22;;
51298;SDS011;37382;45.192;9.790;2024-02-16T13:46:24;102.60;;;74.05;;
51298;SDS011;37382;45.192;9.790;2024-02-16T13:48:51;102.80;;;72.15;;
51298;SDS011;37382;45.192;9.790;2024-02-16T13:51:19;101.05;;;69.93;;
51298;SDS011;37382;45.192;9.790;2024-02-16T13:53:46;96.43;;;66.90;;
51298;SDS011;37382;45.192;9.790;2024-02-16T13:56:14;107.18;;;72.60;;
51298;SDS011;37382;45.192;9.790;2024-02-16T13:58:41;89.10;;;64.75;;
51298;SDS011;37382;45.192;9.790;2024-02-16T14:01:09;89.70;;;64.32;;
51298;SDS011;37382;45.192;9.790;2024-02-16T14:03:36;99.18;;;63.75;;
51298;SDS011;37382;45.192;9.790;2024-02-16T14:06:06;93.63;;;69.13;;
51298;SDS011;37382;45.192;9.790;2024-02-16T14:08:39;90.28;;;65.82;;
51298;SDS011;37382;45.192;9.790;2024-02-16T14:11:06;90.20;;;68.25;;
51298;SDS011;37382;45.192;9.790;2024-02-16T14:13:35;95.07;;;69.88;;
51298;SDS011;37382;45.192;9.790;2024-02-16T14:16:03;93.20;;;69.78;;
51298;SDS011;37382;45.192;9.790;2024-02-16T14:18:31;91.90;;;65.85;;
51298;SDS011;37382;45.192;9.790;2024-02-16T14:21:02;96.17;;;67.87;;
51298;SDS011;37382;45.192;9.790;2024-02-16T14:23:30;89.18;;;67.18;;
51298;SDS011;37382;45.192;9.790;2024-02-16T14:25:59;99.72;;;69.38;;